Time;durP1;ratioP1;P1;durP2;ratioP2;P2;SDS_P1;SDS_P2;PMS_P1;PMS_P2;Temp;Humidity;BMP_temperature;BMP_pressure;BME280_temperature;BME280_humidity;BME280_pressure;Samples;Min_cycle;Max_cycle;Signal;HPM_P1;HPM_P2
2022/02/02 00:00:40;;;;;;;42.55;6.60;;;9.00;99.90;;;;;;5073452;28;20035;-83
2022/02/02 00:03:10;;;;;;;44.25;7.53;;;9.00;99.90;;;;;;5056190;28;20025;-82
2022/02/02 00:08:17;;;;;;;36.33;6.55;;;9.00;99.90;;;;;;5073107;28;20033;-83
2022/02/02 00:21:14;;;;;;;40.75;6.53;;;9.00;99.90;;;;;;5073882;28;20037;-83
2022/02/02 00:23:44;;;;;;;47.58;8.77;;;9.00;99.90;;;;;;5040448;28;20033;-83
2022/02/02 00:26:16;;;;;;;33.13;6.38;;;9.00;99.90;;;;;;5056163;28;20025;-83
2022/02/02 00:28:46;;;;;;;49.15;7.93;;;9.00;99.90;;;;;;5075527;28;20028;-83
2022/02/02 00:31:14;;;;;;;46.53;8.27;;;8.90;99.90;;;;;;5003057;28;1105988;-83
2022/02/02 00:33:48;;;;;;;40.80;7.05;;;8.90;99.90;;;;;;5073055;28;20094;-83
2022/02/02 00:36:16;;;;;;;41.88;6.82;;;8.90;99.90;;;;;;5058065;28;20021;-82
2022/02/02 00:38:41;;;;;;;38.78;7.53;;;8.90;99.90;;;;;;5056708;28;20030;-83
2022/02/02 00:41:07;;;;;;;39.08;6.65;;;9.00;99.90;;;;;;5056492;28;20437;-83
2022/02/02 00:43:33;;;;;;;36.08;6.30;;;8.90;99.90;;;;;;5055422;28;20037;-83
2022/02/02 00:45:58;;;;;;;42.90;7.13;;;8.90;99.90;;;;;;5040083;28;20031;-83
2022/02/02 00:48:27;;;;;;;44.33;7.22;;;8.90;99.90;;;;;;5072791;28;20040;-84
2022/02/02 00:50:54;;;;;;;39.35;6.30;;;9.00;99.90;;;;;;5056335;28;20440;-82
2022/02/02 00:53:21;;;;;;;47.10;8.18;;;8.90;99.90;;;;;;5073103;28;20460;-83
2022/02/02 00:55:47;;;;;;;41.17;6.82;;;8.90;99.90;;;;;;5055965;28;20044;-84
2022/02/02 00:58:12;;;;;;;50.38;8.18;;;8.90;99.90;;;;;;5074295;28;20461;-83
2022/02/02 01:00:39;;;;;;;44.13;6.93;;;8.90;99.90;;;;;;5039194;28;20032;-84
2022/02/02 01:03:05;;;;;;;48.90;7.68;;;8.90;99.90;;;;;;5072887;28;20155;-83
2022/02/02 01:05:31;;;;;;;47.28;9.10;;;8.90;99.90;;;;;;5072569;28;20029;-84
2022/02/02 01:10:41;;;;;;;58.08;8.27;;;8.90;99.90;;;;;;5071657;28;20055;-84
2022/02/02 01:28:35;;;;;;;37.10;6.95;;;8.90;99.90;;;;;;5052688;28;20550;-84
2022/02/02 01:31:01;;;;;;;41.72;6.82;;;8.90;99.90;;;;;;5053017;28;20107;-83
2022/02/02 01:33:31;;;;;;;45.30;8.13;;;8.90;99.90;;;;;;5052880;28;20466;-83
2022/02/02 01:35:58;;;;;;;49.90;7.53;;;8.90;99.90;;;;;;5018942;28;20021;-83
2022/02/02 01:38:27;;;;;;;39.08;6.88;;;8.90;99.90;;;;;;5053591;28;20021;-83
2022/02/02 01:41:01;;;;;;;50.45;8.98;;;8.90;99.90;;;;;;5035781;28;20025;-84
2022/02/02 01:43:32;;;;;;;46.33;6.78;;;8.90;99.90;;;;;;5053470;28;20032;-84
2022/02/02 01:46:03;;;;;;;41.67;8.95;;;8.90;99.90;;;;;;5019564;28;20025;-83
2022/02/02 01:48:38;;;;;;;;;;;8.90;99.90;;;;;;5052594;28;20036;-83
2022/02/02 01:53:46;;;;;;;41.97;6.85;;;8.80;99.90;;;;;;5053312;28;20131;-83
2022/02/02 01:56:14;;;;;;;42.22;7.25;;;8.80;99.90;;;;;;5035457;28;20033;-83
2022/02/02 02:01:24;;;;;;;46.30;8.93;;;8.80;99.90;;;;;;5053072;28;20433;-83
2022/02/02 02:03:49;;;;;;;47.80;7.90;;;8.70;99.90;;;;;;5034720;28;20028;-84
2022/02/02 02:06:17;;;;;;;43.63;6.47;;;8.70;99.90;;;;;;5049174;28;20487;-83
2022/02/02 02:08:43;;;;;;;41.70;6.68;;;8.70;99.90;;;;;;5054852;28;20021;-84
2022/02/02 02:11:15;;;;;;;40.72;7.88;;;8.80;99.90;;;;;;5055079;28;20021;-83
2022/02/02 02:16:26;;;;;;;41.92;7.95;;;8.80;99.90;;;;;;5073095;28;20056;-83
2022/02/02 02:18:52;;;;;;;39.50;7.15;;;8.70;99.90;;;;;;5038556;28;20029;-84
2022/02/02 02:21:22;;;;;;;46.40;8.80;;;8.70;99.90;;;;;;5055630;28;20112;-84
2022/02/02 02:23:49;;;;;;;40.03;6.63;;;8.70;99.90;;;;;;5057006;28;20111;-83
2022/02/02 02:26:22;;;;;;;46.50;7.13;;;8.70;99.90;;;;;;5055497;28;20115;-83
2022/02/02 02:29:10;;;;;;;36.63;8.18;;;8.70;99.90;;;;;;5072849;28;20044;-82
2022/02/02 02:55:54;;;;;;;38.10;6.50;;;8.60;99.90;;;;;;5072730;28;20091;-85
2022/02/02 02:58:38;;;;;;;43.65;8.13;;;8.60;99.90;;;;;;5055567;28;20036;-83
2022/02/02 03:56:04;;;;;;;47.38;6.88;;;8.60;99.90;;;;;;5075320;28;20064;-83
2022/02/02 03:58:40;;;;;;;43.53;7.20;;;8.50;99.90;;;;;;5060139;28;20437;-83
2022/02/02 04:06:26;;;;;;;33.20;6.60;;;8.60;99.90;;;;;;5058652;28;20120;-82
2022/02/02 04:08:51;;;;;;;38.35;7.93;;;8.60;99.90;;;;;;5075527;28;20027;-83
2022/02/02 04:11:42;;;;;;;42.17;7.20;;;8.50;99.90;;;;;;5023755;28;20525;-83
2022/02/02 04:55:32;;;;;;;29.17;6.93;;;8.50;99.90;;;;;;5074172;28;20093;-84
2022/02/02 05:03:47;;;;;;;39.03;6.35;;;8.60;99.90;;;;;;5044277;28;20039;-83
2022/02/02 05:11:10;;;;;;;32.30;6.18;;;8.60;99.90;;;;;;5055884;28;20056;-84
2022/02/02 05:51:56;;;;;;;33.00;6.28;;;8.60;99.90;;;;;;5073697;28;20063;-83
2022/02/02 05:54:23;;;;;;;32.75;5.95;;;8.60;99.90;;;;;;5038690;28;20028;-83
2022/02/02 05:56:51;;;;;;;40.45;6.47;;;8.60;99.90;;;;;;5037071;28;20055;-83
2022/02/02 05:59:23;;;;;;;38.72;7.35;;;8.70;99.90;;;;;;5038578;28;20017;-82
2022/02/02 06:02:00;;;;;;;34.75;7.05;;;8.60;99.90;;;;;;5059288;28;20039;-83
2022/02/02 06:04:29;;;;;;;38.15;6.70;;;8.60;99.90;;;;;;5043188;28;20051;-83
2022/02/02 06:07:01;;;;;;;42.17;8.27;;;8.60;99.90;;;;;;5064715;28;20380;-84
2022/02/02 06:09:32;;;;;;;36.40;6.75;;;8.70;99.90;;;;;;5067423;28;20048;-83
2022/02/02 06:11:59;;;;;;;44.60;7.93;;;8.60;99.90;;;;;;5051457;28;20035;-84
2022/02/02 06:14:29;;;;;;;39.85;7.32;;;8.60;99.90;;;;;;5066376;28;20035;-83
2022/02/02 06:17:04;;;;;;;42.25;7.32;;;8.60;99.90;;;;;;5050884;28;20062;-83
2022/02/02 06:19:30;;;;;;;34.78;6.40;;;8.60;99.90;;;;;;5059793;28;20123;-84
2022/02/02 06:22:17;;;;;;;39.65;7.72;;;8.60;99.90;;;;;;5043009;28;20109;-83
2022/02/02 06:24:56;;;;;;;40.78;7.13;;;8.60;99.90;;;;;;5048518;28;20082;-85
2022/02/02 06:27:25;;;;;;;40.70;6.82;;;8.60;99.90;;;;;;5070763;28;20123;-83
2022/02/02 06:30:05;;;;;;;33.92;5.90;;;8.60;99.90;;;;;;5058025;28;20055;-84
2022/02/02 06:32:52;;;;;;;38.63;6.00;;;8.60;99.90;;;;;;5036932;28;20082;-84
2022/02/02 06:35:20;;;;;;;34.97;5.78;;;8.60;99.90;;;;;;5055491;28;20021;-81
2022/02/02 06:37:47;;;;;;;35.42;6.07;;;8.60;99.90;;;;;;5022536;28;20090;-82
2022/02/02 06:40:14;;;;;;;32.38;6.03;;;8.60;99.90;;;;;;5041295;28;20025;-85
2022/02/02 06:42:41;;;;;;;39.58;6.75;;;8.50;99.90;;;;;;5076213;28;20081;-84
2022/02/02 06:45:09;;;;;;;27.65;5.20;;;8.50;99.90;;;;;;5048911;28;20044;-83
2022/02/02 06:47:37;;;;;;;31.83;5.13;;;8.50;99.90;;;;;;5038782;28;20032;-83
2022/02/02 06:50:10;;;;;;;35.75;6.25;;;8.50;99.90;;;;;;5050200;28;20540;-82
2022/02/02 06:53:05;;;;;;;31.08;5.20;;;8.50;99.90;;;;;;5063292;28;20484;-84
2022/02/02 06:55:45;;;;;;;38.40;6.38;;;8.50;99.90;;;;;;5080551;28;20021;-83
2022/02/02 06:58:29;;;;;;;31.35;5.30;;;8.50;99.90;;;;;;5089543;28;20024;-82
2022/02/02 07:01:14;;;;;;;37.20;6.35;;;8.50;99.90;;;;;;5077031;28;20012;-83
2022/02/02 07:06:39;;;;;;;31.95;5.50;;;8.40;99.90;;;;;;5088320;28;20051;-83
2022/02/02 07:09:20;;;;;;;32.65;5.43;;;8.40;99.90;;;;;;5071948;28;20023;-83
2022/02/02 07:14:30;;;;;;;26.90;5.55;;;8.40;99.90;;;;;;5087313;28;20021;-83
2022/02/02 07:17:32;;;;;;;29.73;5.05;;;8.40;99.90;;;;;;5077436;28;20023;-84
2022/02/02 07:20:19;;;;;;;30.30;5.75;;;8.30;99.90;;;;;;5069547;28;20074;-84
2022/02/02 07:32:53;;;;;;;31.85;5.85;;;8.40;99.90;;;;;;5096121;28;20036;-83
2022/02/02 07:35:29;;;;;;;30.05;4.70;;;8.30;99.90;;;;;;5078315;28;20169;-89
2022/02/02 07:38:10;;;;;;;29.40;5.95;;;8.30;99.90;;;;;;5095118;28;20020;-84
2022/02/02 07:40:39;;;;;;;;;;;8.30;99.90;;;;;;5058398;28;20024;-84
2022/02/02 07:43:06;;;;;;;32.97;5.78;;;8.30;99.90;;;;;;5076693;28;19912;-84
2022/02/02 07:45:32;;;;;;;32.33;4.80;;;8.30;99.90;;;;;;5089345;28;20008;-84
2022/02/02 07:48:00;;;;;;;23.48;5.25;;;8.30;99.90;;;;;;5082698;28;20111;-82
2022/02/02 07:50:29;;;;;;;28.85;5.63;;;8.30;99.90;;;;;;5084921;28;20007;-86
2022/02/02 07:53:01;;;;;;;30.50;4.97;;;8.30;99.90;;;;;;5080744;28;20024;-85
2022/02/02 07:55:29;;;;;;;21.27;3.85;;;8.30;99.90;;;;;;5097735;28;20020;-86
2022/02/02 07:57:58;;;;;;;26.02;4.45;;;8.30;99.90;;;;;;5083341;28;20058;-82
2022/02/02 08:00:24;;;;;;;26.27;4.93;;;8.40;99.90;;;;;;5097256;28;20024;-83
2022/02/02 08:05:34;;;;;;;;;;;8.40;99.90;;;;;;5096455;28;20040;-83
2022/02/02 08:08:26;;;;;;;24.73;5.13;;;8.40;99.90;;;;;;5077357;28;19911;-82
2022/02/02 08:10:55;;;;;;;28.90;5.38;;;8.40;99.90;;;;;;5079665;28;20383;-83
2022/02/02 08:13:26;;;;;;;25.38;4.85;;;8.40;99.90;;;;;;5061042;28;20035;-82
2022/02/02 08:16:01;;;;;;;29.45;5.22;;;8.40;99.90;;;;;;5077163;28;20117;-82
2022/02/02 08:18:27;;;;;;;22.90;5.50;;;8.40;99.90;;;;;;5057725;28;20036;-83
2022/02/02 08:20:53;;;;;;;34.08;5.22;;;8.40;99.90;;;;;;5066674;28;20051;-82
2022/02/02 08:23:19;;;;;;;27.25;5.10;;;8.50;99.90;;;;;;5056937;28;20124;-82
2022/02/02 08:25:45;;;;;;;24.02;4.95;;;8.40;99.90;;;;;;5023627;28;20123;-83
2022/02/02 08:28:10;;;;;;;37.55;5.80;;;8.40;99.90;;;;;;5023891;28;20477;-83
2022/02/02 08:30:36;;;;;;;30.05;5.05;;;8.40;99.90;;;;;;5039515;28;20071;-83
2022/02/02 08:33:06;;;;;;;37.13;6.03;;;8.40;99.90;;;;;;5056711;28;20067;-83
2022/02/02 08:35:42;;;;;;;26.03;5.23;;;8.40;99.90;;;;;;5067097;28;20089;-84
2022/02/02 08:40:41;;;;;;;32.78;6.28;;;8.50;99.90;;;;;;5056953;28;20036;-83
2022/02/02 08:43:15;;;;;;;31.17;6.45;;;8.50;99.90;;;;;;5056826;28;20031;-82
2022/02/02 08:45:43;;;;;;;34.15;5.72;;;8.50;99.90;;;;;;5074352;28;20036;-83
2022/02/02 08:48:14;;;;;;;44.58;6.05;;;8.50;99.90;;;;;;5056502;28;20031;-83
2022/02/02 08:50:48;;;;;;;36.72;7.20;;;8.50;99.90;;;;;;5056218;28;20024;-83
2022/02/02 08:58:38;;;;;;;32.35;6.70;;;8.50;99.90;;;;;;5074386;28;20024;-82
2022/02/02 09:01:10;;;;;;;36.28;6.10;;;8.50;99.90;;;;;;5056201;28;20035;-82
2022/02/02 09:06:21;;;;;;;32.50;6.68;;;8.50;99.90;;;;;;5073843;28;20534;-83
2022/02/02 09:08:49;;;;;;;37.97;6.90;;;8.60;99.90;;;;;;5058208;28;20036;-84
2022/02/02 09:25:24;;;;;;;37.55;6.80;;;8.70;99.90;;;;;;4995421;28;20046;-83
2022/02/02 09:36:07;;;;;;;40.65;8.15;;;8.80;99.90;;;;;;5093876;28;20044;-82
2022/02/02 09:38:33;;;;;;;43.28;7.28;;;8.80;99.90;;;;;;5093688;28;20016;-84
2022/02/02 09:43:27;;;;;;;44.60;7.65;;;8.90;99.90;;;;;;5075579;28;20032;-82
2022/02/02 09:46:03;;;;;;;39.30;8.32;;;8.90;99.90;;;;;;5075160;28;20036;-82
2022/02/02 09:48:34;;;;;;;46.53;7.68;;;8.90;99.90;;;;;;5075622;28;20398;-82
2022/02/02 09:51:08;;;;;;;;;;;8.90;99.90;;;;;;5077143;28;20031;-83
2022/02/02 09:53:42;;;;;;;40.50;6.97;;;9.00;99.90;;;;;;5076549;28;19945;-87
2022/02/02 10:10:05;;;;;;;46.78;7.88;;;9.20;99.90;;;;;;5093265;28;20036;-83
2022/02/02 10:15:24;;;;;;;45.78;6.63;;;9.30;99.90;;;;;;5094978;28;20036;-82
2022/02/02 10:18:13;;;;;;;46.85;8.15;;;9.40;99.90;;;;;;5059955;28;20413;-82
2022/02/02 10:20:38;;;;;;;42.85;7.72;;;9.40;99.90;;;;;;5079428;28;20074;-83
2022/02/02 10:23:06;;;;;;;36.20;6.20;;;9.50;99.90;;;;;;5088306;28;20060;-81
2022/02/02 10:25:33;;;;;;;39.65;6.88;;;9.50;99.90;;;;;;5097463;28;20036;-83
2022/02/02 10:28:16;;;;;;;34.92;7.18;;;9.50;99.90;;;;;;5079376;28;20182;-87
2022/02/02 10:30:54;;;;;;;34.85;6.55;;;9.60;99.90;;;;;;5078952;28;20052;-83
2022/02/02 10:33:25;;;;;;;36.88;6.72;;;9.60;99.90;;;;;;5097474;28;20024;-83
2022/02/02 10:35:53;;;;;;;39.33;6.68;;;9.60;99.90;;;;;;5097147;28;20468;-84
2022/02/02 10:38:31;;;;;;;39.83;6.70;;;9.70;99.90;;;;;;5097244;28;20035;-89
2022/02/02 10:41:29;;;;;;;38.92;7.10;;;9.70;99.90;;;;;;5096855;28;20016;-85
2022/02/02 10:43:58;;;;;;;39.47;6.35;;;9.80;99.90;;;;;;5064571;28;20029;-87
2022/02/02 10:46:36;;;;;;;40.45;7.15;;;9.80;99.90;;;;;;5057414;28;20028;-83
2022/02/02 10:49:10;;;;;;;40.38;6.95;;;9.80;99.90;;;;;;5081787;28;20020;-83
2022/02/02 10:51:47;;;;;;;28.92;7.00;;;9.80;99.90;;;;;;5084611;28;20008;-83
2022/02/02 10:54:29;;;;;;;41.03;7.72;;;9.80;99.90;;;;;;5092890;28;20023;-84
2022/02/02 11:01:08;;;;;;;34.78;7.03;;;9.90;99.90;;;;;;5078552;28;20082;-84
2022/02/02 11:08:25;;;;;;;31.25;5.63;;;9.90;99.90;;;;;;5076509;28;20035;-82
2022/02/02 11:10:51;;;;;;;34.75;6.60;;;10.00;99.90;;;;;;5057877;28;20032;-83
2022/02/02 11:13:17;;;;;;;40.45;8.02;;;10.00;99.90;;;;;;5058615;28;20029;-83
2022/02/02 11:15:51;;;;;;;38.78;7.38;;;10.00;99.90;;;;;;5064540;28;20325;-87
2022/02/02 11:18:21;;;;;;;34.05;5.75;;;10.10;99.90;;;;;;5082449;28;20028;-84
2022/02/02 11:20:47;;;;;;;35.28;6.05;;;10.20;99.90;;;;;;5082812;28;20095;-84
2022/02/02 11:23:13;;;;;;;38.97;7.05;;;10.20;99.90;;;;;;5071067;28;20073;-84
2022/02/02 11:25:41;;;;;;;32.78;5.80;;;10.30;99.90;;;;;;5068743;28;20050;-83
2022/02/02 11:28:34;;;;;;;35.28;6.18;;;10.40;99.90;;;;;;5069075;28;20039;-84
2022/02/02 11:31:11;;;;;;;32.70;6.45;;;10.40;99.90;;;;;;5059030;28;20048;-83
2022/02/02 11:33:51;;;;;;;29.90;5.68;;;10.50;99.90;;;;;;5087827;28;20035;-85
2022/02/02 11:36:39;;;;;;;33.58;6.38;;;10.60;99.90;;;;;;5088503;28;20029;-82
2022/02/02 11:39:08;;;;;;;33.10;6.43;;;10.70;99.90;;;;;;5082760;28;20024;-84
2022/02/02 11:41:57;;;;;;;26.92;5.80;;;10.70;99.90;;;;;;5066305;28;20078;-83
2022/02/02 11:45:05;;;;;;;29.20;5.40;;;10.70;99.90;;;;;;5068387;28;20024;-83
2022/02/02 11:47:39;;;;;;;25.00;5.70;;;10.80;99.90;;;;;;5062028;28;20036;-83
2022/02/02 11:50:07;;;;;;;31.08;4.57;;;10.80;99.90;;;;;;5080525;28;20415;-83
2022/02/02 11:52:54;;;;;;;24.60;5.18;;;10.80;99.90;;;;;;5086272;28;20038;-84
2022/02/02 11:55:26;;;;;;;26.10;5.90;;;10.90;99.90;;;;;;5064262;28;20460;-83
2022/02/02 11:58:12;;;;;;;29.80;5.55;;;10.90;99.90;;;;;;5074960;28;20413;-84
2022/02/02 12:00:51;;;;;;;25.17;4.15;;;11.00;99.90;;;;;;5072093;28;20016;-84
2022/02/02 12:03:49;;;;;;;25.75;4.70;;;11.10;99.90;;;;;;5083925;28;20025;-83
2022/02/02 12:57:07;;;;;;;16.55;3.83;;;11.80;99.90;;;;;;5084496;28;20468;-83
2022/02/02 13:02:16;;;;;;;18.58;3.72;;;11.90;99.90;;;;;;5076458;28;20033;-86
2022/02/02 13:04:45;;;;;;;22.33;3.50;;;12.00;99.90;;;;;;5076850;28;20027;-84
2022/02/02 13:07:19;;;;;;;17.90;3.53;;;12.10;99.90;;;;;;5081621;28;20435;-84
2022/02/02 13:09:48;;;;;;;12.82;3.53;;;12.10;99.90;;;;;;5059127;28;20056;-83
2022/02/02 13:12:33;;;;;;;12.10;2.47;;;12.20;99.90;;;;;;5073783;28;20115;-83
2022/02/02 13:26:10;;;;;;;15.52;3.03;;;12.40;99.90;;;;;;5093794;28;20032;-84
2022/02/02 13:29:05;;;;;;;15.40;3.30;;;12.40;99.90;;;;;;5094634;28;20100;-83
2022/02/02 13:32:06;;;;;;;13.63;3.15;;;12.40;99.90;;;;;;5093966;28;20036;-84
2022/02/02 14:06:33;;;;;;;16.58;3.30;;;13.20;99.90;;;;;;5078498;28;20048;-84
2022/02/02 14:33:23;;;;;;;21.95;3.80;;;13.00;99.90;;;;;;5072849;28;20542;-83
2022/02/02 14:35:53;;;;;;;18.60;3.42;;;13.10;99.90;;;;;;5073145;28;20029;-83
2022/02/02 14:38:18;;;;;;;11.77;3.25;;;13.00;99.90;;;;;;5051593;28;20032;-83
2022/02/02 14:43:24;;;;;;;17.42;3.50;;;13.00;99.90;;;;;;5056028;28;20064;-83
2022/02/02 14:45:54;;;;;;;16.13;3.95;;;13.00;99.90;;;;;;5060388;28;20023;-84
2022/02/02 14:51:03;;;;;;;17.40;3.85;;;13.00;99.90;;;;;;5037395;28;20068;-85
2022/02/02 14:53:39;;;;;;;17.27;3.20;;;12.90;99.90;;;;;;5060787;28;20024;-83
2022/02/02 14:56:50;;;;;;;15.48;3.30;;;12.90;99.90;;;;;;5053616;28;20366;-84
2022/02/02 15:26:25;;;;;;;16.40;4.10;;;12.70;99.90;;;;;;5046750;28;20158;-83
2022/02/02 15:28:30;;;;;;;15.70;3.47;;;12.70;99.90;;;;;;5060665;28;20484;-84
2022/02/02 15:31:01;;;;;;;21.60;4.55;;;12.60;99.90;;;;;;5026612;28;20071;-83
2022/02/02 15:33:30;;;;;;;17.05;3.65;;;12.70;99.90;;;;;;5058986;28;20136;-83
2022/02/02 15:38:40;;;;;;;21.60;4.82;;;12.60;99.90;;;;;;5060865;28;20488;-83
2022/02/02 15:41:13;;;;;;;19.52;4.88;;;12.50;99.90;;;;;;5075711;28;20056;-83
2022/02/02 15:43:53;;;;;;;29.10;8.60;;;12.50;99.90;;;;;;5057862;28;20366;-83
2022/02/02 15:55:02;;;;;;;42.47;20.45;;;12.40;99.90;;;;;;5069709;28;20104;-84
2022/02/02 16:05:15;;;;;;;24.05;6.68;;;12.20;99.90;;;;;;5082409;28;20029;-84
2022/02/02 16:07:40;;;;;;;25.40;6.50;;;12.20;99.90;;;;;;5044083;28;20035;-84
2022/02/02 16:10:13;;;;;;;20.92;5.82;;;12.20;99.90;;;;;;5050330;28;20028;-86
2022/02/02 16:12:45;;;;;;;18.55;5.00;;;12.20;99.90;;;;;;5083302;28;20468;-91
2022/02/02 16:17:48;;;;;;;23.17;4.30;;;12.10;99.90;;;;;;5081778;28;20028;-84
2022/02/02 16:36:02;;;;;;;19.33;5.15;;;11.80;99.90;;;;;;5074638;28;20043;-85
2022/02/02 16:38:32;;;;;;;20.65;5.65;;;11.80;99.90;;;;;;5030792;28;20033;-85
2022/02/02 16:40:58;;;;;;;24.97;6.30;;;11.80;99.90;;;;;;5083998;28;20023;-85
2022/02/02 16:43:24;;;;;;;18.25;5.53;;;11.70;99.90;;;;;;5073249;28;20036;-84
2022/02/02 16:45:53;;;;;;;18.33;4.45;;;11.70;99.90;;;;;;5059044;28;20033;-84
2022/02/02 16:48:24;;;;;;;22.50;5.05;;;11.70;99.90;;;;;;5056533;28;20090;-84
2022/02/02 16:50:54;;;;;;;22.73;5.15;;;11.60;99.90;;;;;;5057093;28;20376;-85
2022/02/02 16:56:32;;;;;;;30.83;5.90;;;11.50;99.90;;;;;;5094505;28;20512;-84
2022/02/02 17:31:26;;;;;;;22.60;4.57;;;11.30;99.90;;;;;;5072181;28;20500;-85
2022/02/02 17:34:42;;;;;;;20.88;5.10;;;11.20;99.90;;;;;;5039982;28;20055;-85
2022/02/02 17:36:45;;;;;;;25.63;6.65;;;11.20;99.90;;;;;;5057461;28;20033;-84
2022/02/02 17:39:14;;;;;;;26.75;4.88;;;11.20;99.90;;;;;;5057112;28;20020;-84
2022/02/02 17:44:49;;;;;;;25.10;5.75;;;11.20;99.90;;;;;;5044270;28;20068;-84
2022/02/02 18:19:47;;;;;;;23.63;9.05;;;10.70;99.90;;;;;;5031701;28;20420;-84
2022/02/02 18:22:14;;;;;;;26.25;10.20;;;10.70;99.90;;;;;;5052189;28;20047;-85
2022/02/02 18:24:54;;;;;;;41.65;16.63;;;10.70;99.90;;;;;;5035493;28;20039;-84
2022/02/02 18:27:28;;;;;;;40.03;18.58;;;10.70;99.90;;;;;;5035962;28;20048;-84
2022/02/02 18:30:45;;;;;;;22.33;10.73;;;10.70;99.90;;;;;;5035232;28;20025;-85
2022/02/02 18:33:17;;;;;;;25.08;10.25;;;10.70;99.90;;;;;;5031168;28;20143;-84
2022/02/02 18:35:35;;;;;;;28.38;9.50;;;10.70;99.90;;;;;;5027814;28;20091;-85
2022/02/02 18:46:24;;;;;;;18.77;7.93;;;10.70;99.90;;;;;;5039318;28;20478;-85
2022/02/02 19:02:04;;;;;;;18.27;8.02;;;10.70;99.90;;;;;;5019078;28;20045;-84
2022/02/02 20:01:52;;;;;;;16.35;10.02;;;10.60;99.90;;;;;;5075490;28;20038;-84
2022/02/02 20:06:58;;;;;;;17.40;9.90;;;10.50;99.90;;;;;;5074046;28;20033;-86
2022/02/02 20:12:05;;;;;;;15.68;9.68;;;10.50;99.90;;;;;;5074198;28;20366;-83
2022/02/02 20:14:31;;;;;;;14.95;9.23;;;10.50;99.90;;;;;;5056879;28;20025;-84
2022/02/02 20:16:56;;;;;;;17.33;9.60;;;10.50;99.90;;;;;;5073923;28;20079;-83
2022/02/02 20:19:22;;;;;;;18.25;10.50;;;10.50;99.90;;;;;;5057160;28;20032;-83
2022/02/02 20:21:53;;;;;;;15.75;9.30;;;10.50;99.90;;;;;;5056819;28;20023;-83
2022/02/02 20:24:25;;;;;;;15.70;9.88;;;10.50;99.90;;;;;;5057119;28;20119;-83
2022/02/02 20:26:51;;;;;;;15.70;9.88;;;10.50;99.90;;;;;;5074964;28;20024;-83
2022/02/02 20:29:17;;;;;;;16.00;10.23;;;10.40;99.90;;;;;;5056844;28;20029;-83
2022/02/02 20:31:43;;;;;;;18.00;9.82;;;10.40;99.90;;;;;;5073125;28;20155;-83
2022/02/02 20:34:12;;;;;;;15.35;11.30;;;10.50;99.90;;;;;;5056785;28;20115;-83
2022/02/02 20:36:40;;;;;;;18.30;10.93;;;10.40;99.90;;;;;;5073205;28;20107;-83
2022/02/02 20:39:20;;;;;;;18.00;10.23;;;10.40;99.90;;;;;;5056668;28;20154;-84
2022/02/02 20:41:46;;;;;;;19.47;11.77;;;10.40;99.90;;;;;;5056374;28;20028;-83
2022/02/02 20:44:24;;;;;;;21.08;12.20;;;10.40;99.90;;;;;;5074310;28;20040;-83
2022/02/02 21:02:33;;;;;;;20.92;12.32;;;10.30;99.90;;;;;;5072596;28;20105;-83
2022/02/02 21:03:43;;;;;;;22.25;12.57;;;10.30;99.90;;;;;;5055562;28;20044;-83
2022/02/02 21:11:01;;;;;;;23.23;13.38;;;10.30;99.90;;;;;;5074556;28;20045;-83
2022/02/02 21:13:43;;;;;;;23.63;13.20;;;10.30;99.90;;;;;;5074331;28;20031;-84
2022/02/02 21:16:09;;;;;;;26.75;14.70;;;10.30;99.90;;;;;;5074718;28;20024;-83
2022/02/02 21:18:38;;;;;;;25.00;15.38;;;10.30;99.90;;;;;;5057979;28;20510;-83
2022/02/02 21:21:19;;;;;;;28.00;15.55;;;10.30;99.90;;;;;;5057573;28;20027;-83
2022/02/02 21:28:59;;;;;;;25.15;15.13;;;10.30;99.90;;;;;;5075016;28;20040;-83
2022/02/02 21:31:25;;;;;;;28.98;15.88;;;10.30;99.90;;;;;;5092713;28;20070;-85
2022/02/02 21:33:51;;;;;;;25.58;14.88;;;10.30;99.90;;;;;;5097876;28;20008;-86
2022/02/02 21:36:18;;;;;;;27.52;15.02;;;10.30;99.90;;;;;;5090632;28;20028;-84
2022/02/02 21:38:56;;;;;;;28.00;16.27;;;10.30;99.90;;;;;;5092281;28;20020;-93
2022/02/02 21:41:32;;;;;;;31.30;17.17;;;10.30;99.90;;;;;;5088866;28;20015;-88
2022/02/02 21:43:58;;;;;;;27.33;16.25;;;10.30;99.90;;;;;;5078505;28;20040;-88
2022/02/02 21:46:25;;;;;;;30.15;17.65;;;10.30;99.90;;;;;;5073840;28;20455;-84
2022/02/02 21:48:52;;;;;;;28.92;16.77;;;10.30;99.90;;;;;;5056466;28;20052;-84
2022/02/02 21:51:28;;;;;;;30.60;17.58;;;10.30;99.90;;;;;;5067443;28;20028;-84
2022/02/02 21:53:54;;;;;;;29.45;17.38;;;10.30;99.90;;;;;;5067646;28;20111;-84
2022/02/02 21:56:20;;;;;;;31.58;17.23;;;10.30;99.90;;;;;;5052665;28;20016;-84
2022/02/02 21:58:47;;;;;;;32.40;18.30;;;10.30;99.90;;;;;;5066216;28;20086;-87
2022/02/02 22:01:13;;;;;;;30.42;18.90;;;10.20;99.90;;;;;;5049756;28;20023;-83
2022/02/02 22:03:39;;;;;;;32.40;18.48;;;10.20;99.90;;;;;;5051870;28;20028;-85
2022/02/02 22:06:04;;;;;;;31.38;18.75;;;10.20;99.90;;;;;;5033015;28;20071;-85
2022/02/02 22:08:30;;;;;;;31.30;18.77;;;10.20;99.90;;;;;;5057302;28;20031;-83
2022/02/02 22:10:58;;;;;;;33.97;19.65;;;10.20;99.90;;;;;;5075836;28;20468;-83
2022/02/02 22:13:34;;;;;;;32.50;19.20;;;10.30;99.90;;;;;;5064569;28;20040;-83
2022/02/02 22:16:05;;;;;;;31.65;19.45;;;10.20;99.90;;;;;;5052147;28;20027;-84
2022/02/02 22:18:32;;;;;;;35.63;19.48;;;10.30;99.90;;;;;;5071984;28;20118;-83
2022/02/02 22:20:58;;;;;;;30.80;19.02;;;10.30;99.90;;;;;;5080269;28;20028;-85
2022/02/02 22:23:24;;;;;;;33.60;19.35;;;10.30;99.90;;;;;;5050661;28;20024;-83
2022/02/02 22:25:50;;;;;;;37.47;20.67;;;10.30;99.90;;;;;;5049398;28;20361;-85
2022/02/02 22:28:16;;;;;;;30.70;19.65;;;10.30;99.90;;;;;;5041158;28;20058;-84
2022/02/02 22:30:41;;;;;;;31.27;19.50;;;10.30;99.90;;;;;;5073325;28;20567;-86
2022/02/02 22:33:07;;;;;;;35.75;20.85;;;10.30;99.90;;;;;;5075171;28;20032;-84
2022/02/02 22:35:33;;;;;;;33.03;20.60;;;10.20;99.90;;;;;;5075478;28;20472;-86
2022/02/02 22:37:58;;;;;;;37.53;21.92;;;10.20;99.90;;;;;;5041697;28;20392;-84
2022/02/02 22:40:26;;;;;;;36.97;20.65;;;10.20;99.90;;;;;;5074143;28;20020;-85
2022/02/02 22:42:52;;;;;;;39.03;21.77;;;10.20;99.90;;;;;;5042217;28;20036;-85
2022/02/02 22:45:18;;;;;;;37.67;21.98;;;10.20;99.90;;;;;;5074978;28;20029;-84
2022/02/02 22:47:45;;;;;;;37.63;22.42;;;10.20;99.90;;;;;;5074999;28;20563;-84
2022/02/02 22:50:13;;;;;;;36.72;22.83;;;10.20;99.90;;;;;;5074673;28;20044;-84
2022/02/02 22:52:41;;;;;;;38.28;22.92;;;10.20;99.90;;;;;;5075073;28;20032;-84
2022/02/02 22:55:12;;;;;;;35.83;22.60;;;10.20;99.90;;;;;;5058439;28;20028;-84
2022/02/02 22:57:38;;;;;;;33.83;21.17;;;10.20;99.90;;;;;;5075675;28;20460;-84
2022/02/02 23:00:13;;;;;;;38.03;23.10;;;10.30;99.90;;;;;;5074763;28;20134;-84
2022/02/02 23:05:05;;;;;;;38.13;23.42;;;10.30;99.90;;;;;;5074762;28;20032;-83
2022/02/02 23:07:30;;;;;;;36.33;24.00;;;10.30;99.90;;;;;;5074972;28;20024;-84
2022/02/02 23:09:57;;;;;;;35.53;22.42;;;10.30;99.90;;;;;;5057970;28;20035;-84
2022/02/02 23:12:26;;;;;;;35.70;22.38;;;10.30;99.90;;;;;;5075097;28;20034;-84
2022/02/02 23:14:52;;;;;;;35.33;22.65;;;10.30;99.90;;;;;;5058665;28;20035;-84
2022/02/02 23:17:19;;;;;;;36.00;22.65;;;10.30;99.90;;;;;;5074374;28;20122;-84
2022/02/02 23:19:50;;;;;;;35.30;22.95;;;10.30;99.90;;;;;;5074605;28;20464;-84
2022/02/02 23:22:18;;;;;;;36.90;23.65;;;10.30;99.90;;;;;;5042953;28;20415;-84
2022/02/02 23:24:46;;;;;;;34.90;23.48;;;10.30;99.90;;;;;;5061896;28;20099;-84
2022/02/02 23:27:14;;;;;;;35.30;23.17;;;10.30;99.90;;;;;;5061580;28;20028;-83
2022/02/02 23:29:44;;;;;;;35.40;22.70;;;10.30;99.90;;;;;;5078187;28;20416;-84
2022/02/02 23:32:10;;;;;;;29.33;20.65;;;10.30;99.90;;;;;;5096136;28;20067;-84
2022/02/02 23:34:36;;;;;;;31.13;22.13;;;10.30;99.90;;;;;;5078331;28;20028;-84
2022/02/02 23:37:02;;;;;;;28.23;21.27;;;10.30;99.90;;;;;;5078299;28;20375;-84
2022/02/02 23:39:29;;;;;;;33.35;22.45;;;10.30;99.90;;;;;;5077062;28;20032;-84
2022/02/02 23:44:20;;;;;;;30.55;22.23;;;10.20;99.90;;;;;;5096137;28;20418;-84
2022/02/02 23:46:52;;;;;;;28.75;21.80;;;10.30;99.90;;;;;;5061250;28;20035;-83
2022/02/02 23:49:22;;;;;;;32.40;23.10;;;10.20;99.90;;;;;;5061887;28;20047;-83
2022/02/02 23:51:52;;;;;;;28.35;21.27;;;10.20;99.90;;;;;;5077883;28;20481;-84
2022/02/02 23:54:20;;;;;;;28.80;21.58;;;10.20;99.90;;;;;;5077482;28;20024;-83
2022/02/02 23:56:58;;;;;;;34.47;24.77;;;10.20;99.90;;;;;;5095753;28;20032;-84
2022/02/02 23:59:31;;;;;;;27.63;21.67;;;10.20;99.90;;;;;;5062347;28;20063;-84
